Time;durP1;ratioP1;P1;durP2;ratioP2;P2;SDS_P1;SDS_P2;PMS_P1;PMS_P2;Temp;Humidity;BMP_temperature;BMP_pressure;BME280_temperature;BME280_humidity;BME280_pressure;Samples;Min_cycle;Max_cycle;Signal;HPM_P1;HPM_P2
2022/04/21 00:00:39;;;;;;;6.40;4.75;;;7.20;69.30;;;;;;5028251;28;20075;-68
2022/04/21 00:03:06;;;;;;;6.97;4.45;;;7.20;69.30;;;;;;5033264;28;20074;-68
2022/04/21 00:05:32;;;;;;;7.20;4.38;;;7.20;69.30;;;;;;5023874;28;20037;-68
2022/04/21 00:07:58;;;;;;;7.00;4.75;;;7.20;69.70;;;;;;5051097;28;20049;-68
2022/04/21 00:10:25;;;;;;;7.40;4.65;;;7.20;69.40;;;;;;5028348;28;20040;-68
2022/04/21 00:12:51;;;;;;;7.53;4.68;;;7.20;69.70;;;;;;5034061;28;20037;-68
2022/04/21 00:15:18;;;;;;;8.15;4.97;;;7.10;69.40;;;;;;5021223;28;20101;-68
2022/04/21 00:17:44;;;;;;;7.05;4.80;;;7.10;69.70;;;;;;5047226;28;20057;-68
2022/04/21 00:20:11;;;;;;;10.77;5.63;;;7.20;69.90;;;;;;5031650;28;20049;-68
2022/04/21 00:25:21;;;;;;;10.63;6.03;;;7.20;69.60;;;;;;5029025;28;20556;-68
2022/04/21 00:27:47;;;;;;;10.03;5.93;;;7.20;69.70;;;;;;5047402;28;20045;-68
2022/04/21 00:30:15;;;;;;;10.35;7.05;;;7.20;69.70;;;;;;5047613;28;20091;-68
2022/04/21 00:32:42;;;;;;;8.95;6.25;;;7.30;69.80;;;;;;5022311;28;20042;-68
2022/04/21 00:35:12;;;;;;;8.55;6.30;;;7.20;69.60;;;;;;5026250;28;20040;-68
2022/04/21 00:37:48;;;;;;;11.23;7.10;;;7.20;70.10;;;;;;5034330;28;20053;-68
2022/04/21 00:40:15;;;;;;;9.20;6.63;;;7.20;70.10;;;;;;5045514;28;20040;-68
2022/04/21 00:42:42;;;;;;;11.63;6.80;;;7.20;70.00;;;;;;5018901;28;20044;-68
2022/04/21 00:45:09;;;;;;;12.00;7.20;;;7.10;70.10;;;;;;5047536;28;20045;-68
2022/04/21 00:47:40;;;;;;;11.65;6.75;;;7.10;70.30;;;;;;5044019;28;20076;-68
2022/04/21 00:50:10;;;;;;;12.68;7.40;;;7.10;70.50;;;;;;5046393;28;20095;-68
2022/04/21 00:52:37;;;;;;;14.43;7.50;;;7.10;71.10;;;;;;5030472;28;20044;-68
2022/04/21 00:55:03;;;;;;;12.88;7.85;;;7.10;70.70;;;;;;5043631;28;20049;-68
2022/04/21 00:57:29;;;;;;;13.52;7.90;;;7.00;71.00;;;;;;5029338;28;20036;-68
2022/04/21 00:59:55;;;;;;;9.67;7.23;;;7.00;71.00;;;;;;5045131;28;20222;-68
2022/04/21 01:05:05;;;;;;;13.02;7.55;;;6.90;71.30;;;;;;5043627;28;20037;-67
2022/04/21 01:07:34;;;;;;;16.00;8.57;;;6.90;71.70;;;;;;5020558;28;20037;-67
2022/04/21 01:10:00;;;;;;;11.90;7.68;;;6.90;71.40;;;;;;5041874;28;20334;-67
2022/04/21 01:12:25;;;;;;;13.17;8.17;;;6.80;71.50;;;;;;5046387;28;20044;-67
2022/04/21 01:14:51;;;;;;;11.53;8.03;;;6.80;71.70;;;;;;5038349;28;20052;-67
2022/04/21 01:17:30;;;;;;;14.63;8.83;;;6.80;71.60;;;;;;5046242;28;20080;-68
2022/04/21 01:19:56;;;;;;;11.48;8.30;;;6.80;72.00;;;;;;5019653;28;20080;-68
2022/04/21 01:22:21;;;;;;;12.88;8.43;;;6.80;71.90;;;;;;5026925;28;20329;-68
2022/04/21 01:24:47;;;;;;;14.90;8.37;;;6.80;72.10;;;;;;5009759;28;20095;-68
2022/04/21 01:27:13;;;;;;;12.97;8.57;;;6.80;71.90;;;;;;5024470;28;20045;-68
2022/04/21 01:29:38;;;;;;;13.07;8.53;;;6.70;71.90;;;;;;5018885;28;20508;-68
2022/04/21 01:32:04;;;;;;;14.60;8.40;;;6.70;72.30;;;;;;5025975;28;20037;-67
2022/04/21 01:34:30;;;;;;;15.93;9.50;;;6.70;72.40;;;;;;5031547;28;20046;-67
2022/04/21 01:42:24;;;;;;;16.40;10.10;;;6.60;72.30;;;;;;5042896;28;20045;-67
2022/04/21 01:44:50;;;;;;;12.57;9.17;;;6.60;72.60;;;;;;5037705;28;20454;-67
2022/04/21 01:47:15;;;;;;;16.23;9.67;;;6.60;72.50;;;;;;5029990;28;20048;-67
2022/04/21 01:49:41;;;;;;;15.63;10.27;;;6.50;73.00;;;;;;5045146;28;20106;-67
2022/04/21 01:52:07;;;;;;;15.50;10.63;;;6.50;73.00;;;;;;5032066;28;20045;-67
2022/04/21 01:54:32;;;;;;;15.30;9.93;;;6.50;73.20;;;;;;5022623;28;20405;-67
2022/04/21 01:56:58;;;;;;;15.10;10.40;;;6.50;73.10;;;;;;5030496;28;20060;-67
2022/04/21 01:59:24;;;;;;;18.40;9.93;;;6.40;73.00;;;;;;5003263;28;20486;-67
2022/04/21 02:01:50;;;;;;;16.73;10.53;;;6.40;73.20;;;;;;5033508;28;20065;-67
2022/04/21 02:04:16;;;;;;;13.45;9.52;;;6.40;73.10;;;;;;5021901;28;20041;-67
2022/04/21 02:06:41;;;;;;;16.30;10.47;;;6.30;73.20;;;;;;5027331;28;20103;-68
2022/04/21 02:09:07;;;;;;;18.53;10.87;;;6.30;73.30;;;;;;5025221;28;20310;-68
2022/04/21 02:11:33;;;;;;;16.90;11.00;;;6.30;73.30;;;;;;5015840;28;20092;-68
2022/04/21 02:13:59;;;;;;;16.92;10.85;;;6.30;73.50;;;;;;5007077;28;20111;-68
2022/04/21 02:16:25;;;;;;;15.23;10.63;;;6.30;73.50;;;;;;5024960;28;20163;-68
2022/04/21 02:18:50;;;;;;;17.30;10.43;;;6.30;73.80;;;;;;5007921;28;20064;-68
2022/04/21 02:21:16;;;;;;;14.53;11.00;;;6.20;73.80;;;;;;5017167;28;20049;-68
2022/04/21 02:23:42;;;;;;;17.60;11.27;;;6.20;73.70;;;;;;5024748;28;21502;-67
2022/04/21 02:26:07;;;;;;;17.67;10.67;;;6.20;73.60;;;;;;5023781;28;20038;-67
2022/04/21 02:28:33;;;;;;;22.40;12.17;;;6.10;73.80;;;;;;5023768;28;20046;-67
2022/04/21 02:30:59;;;;;;;19.57;12.03;;;6.10;74.40;;;;;;5017900;28;20038;-67
2022/04/21 02:33:24;;;;;;;21.77;12.67;;;6.10;74.10;;;;;;5000753;28;20416;-67
2022/04/21 02:35:50;;;;;;;17.70;11.43;;;6.10;74.00;;;;;;5024400;28;20474;-68
2022/04/21 02:38:16;;;;;;;17.27;12.10;;;6.10;73.90;;;;;;5003898;28;20049;-67
2022/04/21 02:40:43;;;;;;;18.50;12.17;;;6.00;73.90;;;;;;5014574;28;20072;-67
2022/04/21 02:43:08;;;;;;;20.20;13.18;;;6.00;74.30;;;;;;5015097;28;20049;-67
2022/04/21 02:45:35;;;;;;;19.57;12.07;;;6.00;74.20;;;;;;5004798;28;20053;-67
2022/04/21 02:48:01;;;;;;;21.10;13.02;;;6.00;74.10;;;;;;4992105;28;20121;-67
2022/04/21 02:50:27;;;;;;;21.37;13.10;;;6.00;74.50;;;;;;5024644;28;20152;-67
2022/04/21 02:52:53;;;;;;;24.33;13.40;;;6.00;74.50;;;;;;5008546;28;20041;-67
2022/04/21 02:58:04;;;;;;;19.83;13.50;;;6.10;75.20;;;;;;5010988;28;20051;-68
2022/04/21 03:00:29;;;;;;;21.75;13.77;;;6.20;74.90;;;;;;5007819;28;20517;-68
2022/04/21 03:02:58;;;;;;;21.53;14.00;;;6.20;74.80;;;;;;4991035;28;20078;-67
2022/04/21 03:05:24;;;;;;;19.63;13.38;;;6.20;75.00;;;;;;5015671;28;20041;-67
2022/04/21 03:07:50;;;;;;;19.70;13.60;;;6.20;75.10;;;;;;5007621;28;20056;-67
2022/04/21 03:10:16;;;;;;;22.37;14.43;;;6.20;75.20;;;;;;5020560;28;20049;-67
2022/04/21 03:12:42;;;;;;;22.07;13.47;;;6.20;75.30;;;;;;5024339;28;20041;-67
2022/04/21 03:15:11;;;;;;;21.20;14.40;;;6.20;75.10;;;;;;5008114;28;20461;-67
2022/04/21 03:17:36;;;;;;;22.02;14.18;;;6.10;75.10;;;;;;5022090;28;20060;-67
2022/04/21 03:20:03;;;;;;;20.57;14.30;;;6.20;75.60;;;;;;5038497;28;20062;-67
2022/04/21 03:25:15;;;;;;;20.98;13.45;;;6.20;75.20;;;;;;5039227;28;20041;-67
2022/04/21 03:27:43;;;;;;;21.30;13.95;;;6.30;75.30;;;;;;5038500;28;20044;-67
2022/04/21 03:30:09;;;;;;;22.15;13.82;;;6.30;75.00;;;;;;5021865;28;20052;-67
2022/04/21 03:32:36;;;;;;;20.23;13.90;;;6.30;75.00;;;;;;5040950;28;20545;-68
2022/04/21 03:35:03;;;;;;;20.48;14.25;;;6.30;74.70;;;;;;5043029;28;20255;-67
2022/04/21 03:37:29;;;;;;;19.45;13.13;;;6.30;74.80;;;;;;5044869;28;20124;-67
2022/04/21 03:39:54;;;;;;;20.37;12.63;;;6.30;74.90;;;;;;5045419;28;20620;-67
2022/04/21 03:42:27;;;;;;;19.77;13.47;;;6.30;74.70;;;;;;5041323;28;20759;-67
2022/04/21 03:44:53;;;;;;;19.73;12.80;;;6.30;74.70;;;;;;5041464;28;20072;-68
2022/04/21 03:47:20;;;;;;;21.52;13.20;;;6.20;74.70;;;;;;5041661;28;20475;-68
2022/04/21 03:49:46;;;;;;;24.67;13.43;;;6.20;74.70;;;;;;5044621;28;20045;-68
2022/04/21 03:52:12;;;;;;;20.25;13.55;;;6.20;74.70;;;;;;5044491;28;20040;-68
2022/04/21 03:54:39;;;;;;;19.85;12.77;;;6.20;75.00;;;;;;5040932;28;20095;-68
2022/04/21 03:57:06;;;;;;;20.58;13.77;;;6.10;74.90;;;;;;5026974;28;20504;-67
2022/04/21 03:59:32;;;;;;;20.77;13.98;;;6.10;74.80;;;;;;5026829;28;20641;-67
2022/04/21 04:02:02;;;;;;;22.85;14.25;;;6.10;74.90;;;;;;5020274;28;20114;-68
2022/04/21 04:04:38;;;;;;;22.02;13.95;;;6.00;75.00;;;;;;5042470;28;20063;-68
2022/04/21 04:12:35;;;;;;;20.48;12.57;;;5.90;75.10;;;;;;5028270;28;20135;-67
2022/04/21 04:15:03;;;;;;;22.50;14.02;;;5.90;75.20;;;;;;5041912;28;20036;-67
2022/04/21 04:17:28;;;;;;;20.05;13.88;;;5.90;75.20;;;;;;5024125;28;20053;-67
2022/04/21 04:19:54;;;;;;;23.00;13.77;;;5.90;75.00;;;;;;5014574;28;20587;-67
2022/04/21 04:22:20;;;;;;;20.67;13.23;;;5.90;75.30;;;;;;5024339;28;20489;-67
2022/04/21 04:24:46;;;;;;;23.07;13.77;;;5.90;75.20;;;;;;5039176;28;20052;-67
2022/04/21 04:27:12;;;;;;;18.90;13.18;;;5.90;75.30;;;;;;5026213;28;20652;-67
2022/04/21 04:29:38;;;;;;;21.83;13.63;;;5.90;75.10;;;;;;5023923;28;20128;-68
2022/04/21 04:32:04;;;;;;;20.23;13.88;;;5.90;75.20;;;;;;5043262;28;20132;-67
2022/04/21 04:34:30;;;;;;;19.48;13.10;;;5.90;75.10;;;;;;5043487;28;20076;-67
2022/04/21 04:36:55;;;;;;;20.07;13.47;;;5.90;75.20;;;;;;5025156;28;20072;-67
2022/04/21 04:39:21;;;;;;;20.17;13.17;;;6.00;75.00;;;;;;5026157;28;20049;-67
2022/04/21 04:44:31;;;;;;;19.10;13.05;;;6.00;74.90;;;;;;5040128;28;20041;-67
2022/04/21 04:46:57;;;;;;;21.40;13.87;;;6.10;74.80;;;;;;5040491;28;20187;-67
2022/04/21 04:49:24;;;;;;;20.97;13.57;;;6.20;74.60;;;;;;5025536;28;20056;-67
2022/04/21 04:51:50;;;;;;;19.05;12.23;;;6.10;74.40;;;;;;5040042;28;20045;-67
2022/04/21 04:54:17;;;;;;;20.67;13.45;;;6.10;74.60;;;;;;5041812;28;20036;-67
2022/04/21 04:56:45;;;;;;;17.67;11.65;;;6.20;74.50;;;;;;5056030;28;20037;-68
2022/04/21 04:59:11;;;;;;;18.90;12.32;;;6.20;74.20;;;;;;5036329;28;20052;-68
2022/04/21 05:01:42;;;;;;;20.83;13.18;;;6.20;74.10;;;;;;5022302;28;20116;-67
2022/04/21 05:04:11;;;;;;;18.63;11.90;;;6.10;74.20;;;;;;5028116;28;20112;-67
2022/04/21 05:06:40;;;;;;;21.13;12.75;;;6.10;74.20;;;;;;5029647;28;20484;-67
2022/04/21 05:09:09;;;;;;;16.88;11.10;;;6.20;74.10;;;;;;5029701;28;20064;-67
2022/04/21 05:11:35;;;;;;;17.88;12.02;;;6.20;74.10;;;;;;5025936;28;20143;-67
2022/04/21 05:14:01;;;;;;;16.58;11.43;;;6.20;74.00;;;;;;5041165;28;20064;-67
2022/04/21 05:16:28;;;;;;;19.45;11.75;;;6.30;73.80;;;;;;5037966;28;20047;-67
2022/04/21 05:18:55;;;;;;;17.77;11.50;;;6.30;73.70;;;;;;5042586;28;20123;-68
2022/04/21 05:21:21;;;;;;;17.67;11.57;;;6.40;73.70;;;;;;5035480;28;20041;-68
2022/04/21 05:23:47;;;;;;;16.35;10.93;;;6.40;73.60;;;;;;5046794;28;20477;-68
2022/04/21 05:26:16;;;;;;;17.95;11.90;;;6.50;73.30;;;;;;5044747;28;20045;-68
2022/04/21 05:28:46;;;;;;;19.58;12.20;;;6.50;73.20;;;;;;5044294;28;20052;-68
2022/04/21 05:31:12;;;;;;;15.57;10.60;;;6.50;73.30;;;;;;5044830;28;20398;-68
2022/04/21 05:33:38;;;;;;;16.93;10.60;;;6.60;73.20;;;;;;5045223;28;20039;-68
2022/04/21 05:36:05;;;;;;;17.48;10.82;;;6.60;73.20;;;;;;4995301;28;20045;-68
2022/04/21 05:38:31;;;;;;;17.27;10.60;;;6.70;73.20;;;;;;5043493;28;20149;-68
2022/04/21 05:40:57;;;;;;;16.73;10.80;;;6.70;73.20;;;;;;5042042;28;20382;-68
2022/04/21 05:43:30;;;;;;;15.82;10.68;;;6.70;73.40;;;;;;5017336;28;20131;-68
2022/04/21 05:45:56;;;;;;;17.88;10.27;;;6.70;73.30;;;;;;5038872;28;20469;-68
2022/04/21 05:48:22;;;;;;;17.00;9.75;;;6.80;73.10;;;;;;5025365;28;20084;-68
2022/04/21 05:50:51;;;;;;;15.48;9.02;;;6.90;72.80;;;;;;5041560;28;20048;-68
2022/04/21 05:53:26;;;;;;;15.10;9.25;;;7.00;72.30;;;;;;5042879;28;20049;-68
2022/04/21 05:55:53;;;;;;;14.05;9.15;;;7.10;72.20;;;;;;5043501;28;20064;-68
2022/04/21 05:58:20;;;;;;;13.32;8.82;;;7.20;71.80;;;;;;5034461;28;20045;-68
2022/04/21 06:00:46;;;;;;;15.02;9.30;;;7.30;71.30;;;;;;5025147;28;20080;-68
2022/04/21 06:03:12;;;;;;;12.85;9.02;;;7.40;71.00;;;;;;5036951;28;20045;-68
2022/04/21 06:05:39;;;;;;;15.97;9.67;;;7.40;70.90;;;;;;5011723;28;20041;-68
2022/04/21 06:08:08;;;;;;;13.85;9.07;;;7.50;71.00;;;;;;5029270;28;20049;-68
2022/04/21 06:10:35;;;;;;;13.75;8.43;;;7.60;71.10;;;;;;5041945;28;20033;-68
2022/04/21 06:13:02;;;;;;;13.65;9.80;;;7.60;71.10;;;;;;5044630;28;20037;-68
2022/04/21 06:15:32;;;;;;;13.77;9.07;;;7.70;71.10;;;;;;5024255;28;20128;-68
2022/04/21 06:17:59;;;;;;;14.00;8.50;;;7.80;71.20;;;;;;5018588;28;20053;-68
2022/04/21 06:20:26;;;;;;;10.80;8.65;;;7.90;71.10;;;;;;5043233;28;20362;-68
2022/04/21 06:22:53;;;;;;;14.35;8.60;;;7.90;71.10;;;;;;5009279;28;20053;-68
2022/04/21 06:25:19;;;;;;;12.55;7.97;;;8.00;71.00;;;;;;5044189;28;20166;-68
2022/04/21 06:27:44;;;;;;;11.20;8.17;;;8.10;71.00;;;;;;5044838;28;20136;-68
2022/04/21 06:30:10;;;;;;;11.97;8.07;;;8.30;70.70;;;;;;5044529;28;20045;-68
2022/04/21 06:32:36;;;;;;;11.80;8.00;;;8.40;70.40;;;;;;5037697;28;20429;-68
2022/04/21 06:35:03;;;;;;;12.07;7.65;;;8.50;70.40;;;;;;5045122;28;20037;-68
2022/04/21 06:37:29;;;;;;;11.20;7.45;;;8.70;70.00;;;;;;5044324;28;20037;-68
2022/04/21 06:39:54;;;;;;;11.43;7.53;;;8.80;69.90;;;;;;5043750;28;20041;-68
2022/04/21 06:42:20;;;;;;;14.30;7.37;;;9.00;68.90;;;;;;5027314;28;20679;-68
2022/04/21 06:50:14;;;;;;;9.38;6.38;;;9.60;66.40;;;;;;5039364;28;20051;-69
2022/04/21 06:52:40;;;;;;;10.73;6.20;;;9.60;65.50;;;;;;5041094;28;20520;-69
2022/04/21 06:55:06;;;;;;;10.00;6.10;;;9.70;65.10;;;;;;5042199;28;20071;-69
2022/04/21 06:57:31;;;;;;;7.67;5.50;;;9.70;65.60;;;;;;5039186;28;20049;-69
2022/04/21 06:59:58;;;;;;;13.00;6.77;;;9.80;64.30;;;;;;5008165;28;20026;-69
2022/04/21 07:02:27;;;;;;;7.40;6.10;;;9.90;63.70;;;;;;5041625;28;20076;-69
2022/04/21 07:04:53;;;;;;;9.95;5.85;;;9.90;64.00;;;;;;5036442;28;20041;-69
2022/04/21 07:07:19;;;;;;;9.40;6.10;;;10.00;64.20;;;;;;5025603;28;20051;-68
2022/04/21 07:09:45;;;;;;;9.83;5.90;;;10.10;63.50;;;;;;5044762;28;20051;-68
2022/04/21 07:12:11;;;;;;;8.73;6.47;;;10.20;63.30;;;;;;5027162;28;21011;-69
2022/04/21 07:14:37;;;;;;;9.63;6.40;;;10.30;62.50;;;;;;5022249;28;20033;-69
2022/04/21 07:17:03;;;;;;;8.73;5.90;;;10.30;62.40;;;;;;5026643;28;20049;-69
2022/04/21 07:19:29;;;;;;;7.93;5.20;;;10.40;62.60;;;;;;5028236;28;20068;-69
2022/04/21 07:21:54;;;;;;;10.20;5.63;;;10.50;62.40;;;;;;5019025;28;20457;-69
2022/04/21 07:24:20;;;;;;;8.23;5.53;;;10.60;61.60;;;;;;5040921;28;20052;-69
2022/04/21 07:26:46;;;;;;;8.03;5.00;;;10.70;61.40;;;;;;5049453;28;20032;-69
2022/04/21 07:29:11;;;;;;;7.20;5.30;;;10.80;60.70;;;;;;5047744;28;20090;-69
2022/04/21 07:31:38;;;;;;;8.13;5.63;;;10.90;60.50;;;;;;5033402;28;20124;-69
2022/04/21 07:34:03;;;;;;;7.43;4.78;;;10.90;60.50;;;;;;5031555;28;20040;-69
2022/04/21 07:36:29;;;;;;;8.27;5.00;;;11.00;59.50;;;;;;5031067;28;20562;-69
2022/04/21 07:38:55;;;;;;;8.53;4.97;;;11.10;59.20;;;;;;5030464;28;20079;-69
2022/04/21 07:41:21;;;;;;;6.23;4.60;;;11.20;58.10;;;;;;5014852;28;20051;-69
2022/04/21 07:43:46;;;;;;;8.93;5.13;;;11.30;58.80;;;;;;5027235;28;20048;-69
2022/04/21 07:46:14;;;;;;;9.63;4.67;;;11.30;58.90;;;;;;5000728;28;20051;-69
2022/04/21 07:51:24;;;;;;;6.35;4.70;;;11.50;58.40;;;;;;5048828;28;20487;-69
2022/04/21 07:53:50;;;;;;;6.00;3.97;;;11.70;58.00;;;;;;5046698;28;20032;-69
2022/04/21 07:56:15;;;;;;;6.13;4.20;;;11.80;57.90;;;;;;5034805;28;20032;-69
2022/04/21 07:58:41;;;;;;;7.03;4.00;;;11.80;57.30;;;;;;5033372;28;20047;-69
2022/04/21 08:01:07;;;;;;;5.87;3.77;;;11.90;57.00;;;;;;5032414;28;20127;-69
2022/04/21 08:03:37;;;;;;;6.27;3.63;;;12.00;56.70;;;;;;5051172;28;20443;-69
2022/04/21 08:06:04;;;;;;;5.82;3.05;;;12.10;56.80;;;;;;5032657;28;20083;-69
2022/04/21 08:08:30;;;;;;;5.00;3.70;;;12.20;57.20;;;;;;5047797;28;20049;-69
2022/04/21 08:10:56;;;;;;;5.67;3.10;;;12.40;54.60;;;;;;5024093;28;20047;-69
2022/04/21 08:13:23;;;;;;;5.23;3.03;;;12.50;55.20;;;;;;5013585;28;20052;-69
2022/04/21 08:15:49;;;;;;;7.63;3.90;;;12.60;54.60;;;;;;5030600;28;20076;-69
2022/04/21 08:18:15;;;;;;;4.80;3.43;;;12.70;54.90;;;;;;5024743;28;20100;-70
2022/04/21 08:20:41;;;;;;;5.33;3.70;;;12.80;55.00;;;;;;5029105;28;20080;-70
2022/04/21 08:23:06;;;;;;;7.60;3.53;;;12.90;54.60;;;;;;5014564;28;20497;-70
2022/04/21 08:33:45;;;;;;;4.35;3.20;;;13.20;54.00;;;;;;5021165;28;20052;-69
2022/04/21 08:36:11;;;;;;;3.30;2.50;;;13.30;53.40;;;;;;5024524;28;20418;-70
2022/04/21 08:38:37;;;;;;;4.80;2.90;;;13.40;53.10;;;;;;5037710;28;20049;-70
2022/04/21 08:41:07;;;;;;;4.00;2.33;;;13.40;52.40;;;;;;5045819;28;20088;-70
2022/04/21 08:43:35;;;;;;;2.90;2.25;;;13.60;50.60;;;;;;5036178;28;20560;-70
2022/04/21 08:46:03;;;;;;;4.93;2.42;;;13.60;50.80;;;;;;5024625;28;20127;-70
2022/04/21 08:48:29;;;;;;;2.33;2.13;;;13.70;50.50;;;;;;5045498;28;20132;-70
2022/04/21 08:50:55;;;;;;;4.85;2.38;;;13.80;50.30;;;;;;5028400;28;20199;-70
2022/04/21 08:53:24;;;;;;;3.83;2.30;;;13.80;51.40;;;;;;5030429;28;20495;-70
2022/04/21 08:55:51;;;;;;;4.97;2.40;;;14.00;51.60;;;;;;5027245;28;20043;-70
2022/04/21 08:58:17;;;;;;;5.03;3.00;;;14.10;50.50;;;;;;5038262;28;20657;-70
2022/04/21 09:00:43;;;;;;;3.47;2.63;;;14.30;50.20;;;;;;5045818;28;20280;-70
2022/04/21 09:03:10;;;;;;;4.30;2.47;;;14.40;50.40;;;;;;5046728;28;20337;-70
2022/04/21 09:05:36;;;;;;;5.33;3.00;;;14.40;51.10;;;;;;5044592;28;20329;-70
2022/04/21 09:08:02;;;;;;;4.40;2.53;;;14.60;50.20;;;;;;5029752;28;20319;-70
2022/04/21 09:10:29;;;;;;;6.10;2.80;;;14.60;49.80;;;;;;4997132;28;20513;-70
2022/04/21 09:12:58;;;;;;;4.67;2.73;;;14.70;49.00;;;;;;5040139;28;20679;-70
2022/04/21 09:15:32;;;;;;;4.67;2.53;;;14.80;49.60;;;;;;5042540;28;20398;-70
2022/04/21 09:18:00;;;;;;;4.17;2.53;;;14.90;49.90;;;;;;5043565;28;20298;-70
2022/04/21 09:20:33;;;;;;;4.70;2.73;;;15.00;49.30;;;;;;5042397;28;20292;-70
2022/04/21 09:23:01;;;;;;;4.43;2.37;;;15.10;49.70;;;;;;5039708;28;20276;-70
2022/04/21 09:25:29;;;;;;;4.07;2.40;;;15.10;49.50;;;;;;5023369;28;20614;-70
2022/04/21 09:27:56;;;;;;;2.67;2.37;;;15.20;49.20;;;;;;5040094;28;20338;-70
2022/04/21 09:30:21;;;;;;;4.73;2.63;;;15.40;47.80;;;;;;5045844;28;20795;-70
2022/04/21 09:32:55;;;;;;;3.40;2.13;;;15.40;48.00;;;;;;5025748;28;20318;-70
2022/04/21 09:35:22;;;;;;;3.33;2.30;;;15.40;49.00;;;;;;5025945;28;20041;-70
2022/04/21 09:37:53;;;;;;;2.87;2.30;;;15.50;49.40;;;;;;4995443;28;20276;-70
2022/04/21 09:40:22;;;;;;;2.73;2.10;;;15.60;49.30;;;;;;5037370;28;20284;-70
2022/04/21 09:43:03;;;;;;;4.87;2.23;;;15.70;48.20;;;;;;5041687;28;20275;-70
2022/04/21 09:48:28;;;;;;;3.80;2.10;;;15.90;47.30;;;;;;5043357;28;20312;-70
2022/04/21 09:50:54;;;;;;;7.37;2.17;;;15.90;47.90;;;;;;5043195;28;20281;-70
2022/04/21 09:53:24;;;;;;;3.80;2.60;;;16.00;47.00;;;;;;5045743;28;20778;-70
2022/04/21 09:55:52;;;;;;;2.83;2.00;;;16.00;46.60;;;;;;5039244;28;20284;-70
2022/04/21 09:58:18;;;;;;;4.20;2.37;;;16.00;47.40;;;;;;5039010;28;20286;-70
2022/04/21 10:00:45;;;;;;;3.50;2.40;;;16.10;46.80;;;;;;5043634;28;20283;-70
2022/04/21 10:03:11;;;;;;;3.53;2.30;;;16.20;46.40;;;;;;5027766;28;20353;-70
2022/04/21 10:05:41;;;;;;;4.00;2.40;;;16.10;45.90;;;;;;5044004;28;20358;-70
2022/04/21 10:08:09;;;;;;;3.57;2.40;;;16.10;45.50;;;;;;5025626;28;20300;-70
2022/04/21 10:10:36;;;;;;;4.03;2.23;;;16.10;46.20;;;;;;5044940;28;20675;-70
2022/04/21 10:13:04;;;;;;;3.30;2.63;;;16.20;45.60;;;;;;5044200;28;20279;-70
2022/04/21 10:15:30;;;;;;;3.27;2.50;;;16.20;46.30;;;;;;5042276;28;20768;-70
2022/04/21 10:17:56;;;;;;;5.10;2.60;;;16.30;46.50;;;;;;5033783;28;20910;-70
2022/04/21 10:20:26;;;;;;;4.30;2.73;;;16.30;46.90;;;;;;5044764;28;20314;-70
2022/04/21 10:22:53;;;;;;;3.97;2.40;;;16.40;47.00;;;;;;5041421;28;20476;-70
2022/04/21 10:25:22;;;;;;;7.33;3.50;;;16.50;47.50;;;;;;5045424;28;20628;-70
2022/04/21 10:27:49;;;;;;;6.20;3.20;;;16.60;46.80;;;;;;5029369;28;20340;-70
2022/04/21 10:30:35;;;;;;;3.60;2.80;;;16.70;46.60;;;;;;5045733;28;20758;-70
2022/04/21 10:33:01;;;;;;;4.00;2.43;;;16.80;46.80;;;;;;5039608;28;20291;-70
2022/04/21 10:35:34;;;;;;;5.23;2.90;;;16.90;46.30;;;;;;5043414;28;20294;-70
2022/04/21 10:38:15;;;;;;;4.30;2.50;;;16.80;45.50;;;;;;5041990;28;20294;-71
2022/04/21 10:41:03;;;;;;;5.63;2.80;;;16.80;45.50;;;;;;5042471;28;20797;-70
2022/04/21 10:43:49;;;;;;;4.80;2.53;;;16.80;46.50;;;;;;5049876;28;20840;-70
2022/04/21 10:46:24;;;;;;;3.83;2.50;;;16.80;45.70;;;;;;5040885;28;20292;-70
2022/04/21 10:48:50;;;;;;;4.83;2.50;;;16.90;45.40;;;;;;5043486;28;20669;-71
2022/04/21 10:57:12;;;;;;;4.03;2.50;;;16.80;44.90;;;;;;5048981;28;20309;-71
2022/04/21 10:57:34;;;;;;;6.20;2.53;;;16.80;45.20;;;;;;5045954;28;20842;-71
2022/04/21 11:00:05;;;;;;;5.07;2.17;;;16.90;45.40;;;;;;4997727;28;20319;-71
2022/04/21 11:02:41;;;;;;;4.20;2.83;;;16.90;46.10;;;;;;5047579;28;20056;-71
2022/04/21 11:05:22;;;;;;;3.17;2.10;;;17.00;45.80;;;;;;5047147;28;20309;-70
2022/04/21 11:07:56;;;;;;;2.83;2.07;;;17.10;44.90;;;;;;5048739;28;20298;-70
2022/04/21 11:10:39;;;;;;;4.00;2.30;;;17.20;44.70;;;;;;5046976;28;20349;-70
2022/04/21 11:13:07;;;;;;;4.13;2.27;;;17.20;44.20;;;;;;5029519;28;20770;-70
2022/04/21 11:15:45;;;;;;;3.70;2.43;;;17.20;43.90;;;;;;5030499;28;20305;-71
2022/04/21 11:18:19;;;;;;;4.20;2.07;;;17.30;43.70;;;;;;5030108;28;20626;-70
2022/04/21 11:20:47;;;;;;;3.17;2.37;;;17.30;44.70;;;;;;5028006;28;20682;-70
2022/04/21 11:23:26;;;;;;;4.17;2.30;;;17.30;44.90;;;;;;5045911;28;20287;-70
2022/04/21 11:26:01;;;;;;;4.97;2.80;;;17.50;45.10;;;;;;5045999;28;20332;-70
2022/04/21 11:28:26;;;;;;;4.18;2.38;;;17.60;45.00;;;;;;5031775;28;20391;-70
2022/04/21 11:30:57;;;;;;;4.77;2.93;;;17.50;43.70;;;;;;5045279;28;20115;-70
2022/04/21 11:33:23;;;;;;;4.80;2.60;;;17.40;44.40;;;;;;5045307;28;20033;-70
2022/04/21 11:35:48;;;;;;;3.70;2.57;;;17.50;45.00;;;;;;5030278;28;20653;-71
2022/04/21 11:38:14;;;;;;;5.50;2.50;;;17.60;44.40;;;;;;5045657;28;20048;-71
2022/04/21 11:40:41;;;;;;;3.43;2.57;;;17.50;44.20;;;;;;5046320;28;20499;-71
2022/04/21 11:43:12;;;;;;;5.23;2.90;;;17.40;44.00;;;;;;5048267;28;20072;-71
2022/04/21 11:45:40;;;;;;;3.83;2.50;;;17.40;44.30;;;;;;5045613;28;20287;-71
2022/04/21 11:48:15;;;;;;;4.97;2.70;;;17.50;45.00;;;;;;5031269;28;20295;-70
2022/04/21 11:50:47;;;;;;;3.50;2.75;;;17.70;44.80;;;;;;5044830;28;20284;-70
2022/04/21 11:53:20;;;;;;;5.00;2.83;;;17.90;44.00;;;;;;5047805;28;20111;-70
2022/04/21 11:55:50;;;;;;;3.20;2.40;;;17.90;44.20;;;;;;5045994;28;20329;-70
2022/04/21 11:58:31;;;;;;;3.40;2.13;;;17.90;45.10;;;;;;5045985;28;20284;-70
2022/04/21 12:06:32;;;;;;;2.40;2.07;;;18.00;43.80;;;;;;5034264;28;19920;-70
2022/04/21 12:08:59;;;;;;;4.87;2.60;;;17.90;43.70;;;;;;5031390;28;20655;-70
2022/04/21 12:11:26;;;;;;;4.70;2.43;;;18.00;42.80;;;;;;5045105;28;20694;-70
2022/04/21 12:13:52;;;;;;;4.90;2.17;;;18.00;43.40;;;;;;5045323;28;20838;-70
2022/04/21 12:16:39;;;;;;;2.37;1.60;;;18.10;44.10;;;;;;5029576;28;20359;-71
2022/04/21 12:19:17;;;;;;;3.23;2.07;;;18.30;42.40;;;;;;5031310;28;20092;-71
2022/04/21 12:21:52;;;;;;;3.80;1.93;;;18.40;42.80;;;;;;5042016;28;20690;-71
2022/04/21 12:24:18;;;;;;;;;;;18.40;43.10;;;;;;5031824;28;20575;-71
2022/04/21 12:26:52;;;;;;;3.43;2.23;;;18.60;43.30;;;;;;5025745;28;19921;-70
2022/04/21 12:29:20;;;;;;;5.18;3.40;;;18.60;43.20;;;;;;5040861;28;20041;-71
2022/04/21 12:31:54;;;;;;;5.40;3.57;;;18.60;43.60;;;;;;5041715;28;20064;-71
2022/04/21 12:34:31;;;;;;;3.70;2.80;;;18.60;44.00;;;;;;5030114;28;20279;-71
2022/04/21 12:37:02;;;;;;;3.87;2.53;;;18.50;44.10;;;;;;5045809;28;20354;-71
2022/04/21 12:39:29;;;;;;;5.77;3.10;;;18.50;44.00;;;;;;5047202;28;20322;-71
2022/04/21 12:41:57;;;;;;;4.13;2.70;;;18.30;44.20;;;;;;5047361;28;20940;-71
2022/04/21 12:44:25;;;;;;;4.93;3.37;;;18.20;44.20;;;;;;5033640;28;20283;-71
2022/04/21 12:47:17;;;;;;;4.20;2.97;;;18.20;45.00;;;;;;5045405;28;20295;-71
2022/04/21 12:50:01;;;;;;;4.67;3.00;;;18.30;44.90;;;;;;5035601;28;20341;-70
2022/04/21 12:52:36;;;;;;;5.70;2.77;;;18.30;43.90;;;;;;5047258;28;20631;-70
2022/04/21 12:55:07;;;;;;;3.42;3.13;;;18.10;44.50;;;;;;5045034;28;20279;-70
2022/04/21 12:57:34;;;;;;;5.13;2.87;;;18.10;44.40;;;;;;5030859;28;20124;-70
2022/04/21 13:00:00;;;;;;;4.50;2.60;;;18.10;44.90;;;;;;5045148;28;21064;-70
2022/04/21 13:02:26;;;;;;;11.50;2.93;;;18.20;44.90;;;;;;5026926;28;20287;-70
2022/04/21 13:04:52;;;;;;;5.30;3.10;;;18.30;44.80;;;;;;5022125;28;20072;-70
2022/04/21 13:07:18;;;;;;;5.00;3.30;;;18.40;44.60;;;;;;5028628;28;20326;-70
2022/04/21 13:09:44;;;;;;;9.27;3.40;;;18.40;44.20;;;;;;5045359;28;20095;-71
2022/04/21 13:12:10;;;;;;;4.53;3.50;;;18.50;44.40;;;;;;5028019;28;20787;-71
2022/04/21 13:14:36;;;;;;;6.73;3.33;;;18.50;44.20;;;;;;5009952;28;20116;-70
2022/04/21 13:17:02;;;;;;;5.03;3.70;;;18.50;44.20;;;;;;5030015;28;20052;-70
2022/04/21 13:19:27;;;;;;;6.97;3.50;;;18.50;44.80;;;;;;5008029;28;20308;-71
2022/04/21 13:21:55;;;;;;;8.13;3.60;;;18.50;44.70;;;;;;5014024;28;20549;-71
2022/04/21 13:24:22;;;;;;;5.43;3.33;;;18.40;43.80;;;;;;5027626;28;20037;-70
2022/04/21 13:26:48;;;;;;;5.80;3.33;;;18.20;44.00;;;;;;5044803;28;20283;-70
2022/04/21 13:29:13;;;;;;;4.60;3.57;;;18.10;45.20;;;;;;5045674;28;20303;-71
2022/04/21 13:34:23;;;;;;;14.90;3.63;;;18.20;44.20;;;;;;5045639;28;20049;-71
2022/04/21 13:36:49;;;;;;;6.03;3.50;;;18.20;43.60;;;;;;5046356;28;20625;-71
2022/04/21 13:39:15;;;;;;;7.13;3.43;;;18.20;44.10;;;;;;5041133;28;20498;-71
2022/04/21 13:41:41;;;;;;;5.93;3.63;;;18.20;44.50;;;;;;5018548;28;20045;-71
2022/04/21 13:44:08;;;;;;;3.87;3.03;;;18.20;44.60;;;;;;5012673;28;20287;-71